createdAt,value
2022-12-18T00:00:22.871Z,26.23
2022-12-18T00:05:24.431Z,26.92
2022-12-18T00:10:25.830Z,29.65
2022-12-18T00:15:27.149Z,29.83
2022-12-18T00:20:29.517Z,30.52
2022-12-18T00:25:33.150Z,29.65
2022-12-18T00:30:34.562Z,29.92
2022-12-18T00:35:35.924Z,30.05
2022-12-18T00:40:37.432Z,27.42
2022-12-18T00:45:39.456Z,26.52
2022-12-18T00:50:41.386Z,30.65
2022-12-18T00:55:43.672Z,30.10
2022-12-18T01:00:45.148Z,27.05
2022-12-18T01:05:46.681Z,27.70
2022-12-18T01:10:48.106Z,30.90
2022-12-18T01:15:52.651Z,27.58
2022-12-18T01:20:54.375Z,26.93
2022-12-18T01:25:55.994Z,27.08
2022-12-18T01:30:57.363Z,22.73
2022-12-18T01:35:59.059Z,28.20
2022-12-18T01:41:01.489Z,29.67
2022-12-18T01:46:03.343Z,22.75
2022-12-18T01:51:06.987Z,28.92
2022-12-18T01:56:09.986Z,26.33
2022-12-18T02:01:11.792Z,27.83
2022-12-18T02:06:20.730Z,29.45
2022-12-18T02:11:34.930Z,28.98
2022-12-18T02:17:09.609Z,27.83
2022-12-18T02:22:30.354Z,27.33
2022-12-18T02:27:34.632Z,26.73
2022-12-18T02:32:40.716Z,26.52
2022-12-18T02:37:48.497Z,26.15
2022-12-18T02:42:50.260Z,30.63
2022-12-18T02:47:53.041Z,30.08
2022-12-18T02:53:02.777Z,26.48
2022-12-18T02:58:42.894Z,31.20
2022-12-18T03:03:58.566Z,29.98
2022-12-18T03:14:07.936Z,28.77
2022-12-18T03:19:21.218Z,25.63
2022-12-18T03:24:24.791Z,28.23
2022-12-18T03:29:33.923Z,24.92
2022-12-18T03:34:39.324Z,27.75
2022-12-18T03:44:42.153Z,27.13
2022-12-18T03:50:12.439Z,26.05
2022-12-18T03:55:14.694Z,26.85
2022-12-18T04:00:19.030Z,24.58
2022-12-18T04:05:21.567Z,23.00
2022-12-18T04:10:23.058Z,26.30
2022-12-18T04:15:25.114Z,26.27
2022-12-18T04:20:26.878Z,26.52
2022-12-18T04:25:28.261Z,25.25
2022-12-18T04:30:29.600Z,25.33
2022-12-18T04:35:31.226Z,25.70
2022-12-18T04:40:32.742Z,20.80
2022-12-18T04:45:34.235Z,22.15
2022-12-18T04:50:35.732Z,20.73
2022-12-18T04:55:37.377Z,23.00
2022-12-18T05:00:38.946Z,22.90
2022-12-18T05:05:40.454Z,28.58
2022-12-18T05:10:41.801Z,25.08
2022-12-18T05:15:43.308Z,25.88
2022-12-18T05:20:44.735Z,22.85
2022-12-18T05:26:01.179Z,25.02
2022-12-18T05:31:04.460Z,27.05
2022-12-18T05:36:08.482Z,25.40
2022-12-18T05:41:17.237Z,23.60
2022-12-18T05:46:19.618Z,24.02
2022-12-18T05:51:23.388Z,24.75
2022-12-18T05:56:25.050Z,25.25
2022-12-18T06:01:27.703Z,24.75
2022-12-18T06:06:29.807Z,23.10
2022-12-18T06:11:31.236Z,23.02
2022-12-18T06:16:34.139Z,23.73
2022-12-18T06:21:35.748Z,26.00
2022-12-18T06:26:39.693Z,24.00
2022-12-18T06:31:41.169Z,25.92
2022-12-18T06:36:42.730Z,23.40
2022-12-18T06:41:44.100Z,24.85
2022-12-18T06:46:45.593Z,25.10
2022-12-18T06:51:48.368Z,23.92
2022-12-18T06:56:51.342Z,21.60
2022-12-18T07:01:53.138Z,22.95
2022-12-18T07:06:54.756Z,22.02
2022-12-18T07:11:57.080Z,25.27
2022-12-18T07:16:59.298Z,22.58
2022-12-18T07:22:01.846Z,23.20
2022-12-18T07:27:03.530Z,25.92
2022-12-18T07:32:05.867Z,25.40
2022-12-18T07:37:07.628Z,25.10
2022-12-18T07:42:27.625Z,26.63
2022-12-18T07:47:29.887Z,24.10
2022-12-18T07:52:32.361Z,24.90
2022-12-18T07:57:50.107Z,24.10
2022-12-18T08:02:52.852Z,23.05
2022-12-18T08:07:55.213Z,23.25
2022-12-18T08:13:01.391Z,24.83
2022-12-18T08:18:09.052Z,24.77
2022-12-18T08:23:12.801Z,29.50
2022-12-18T08:28:17.221Z,25.63
2022-12-18T08:33:18.640Z,26.80
2022-12-18T08:38:20.402Z,26.17
2022-12-18T08:43:42.968Z,23.52
2022-12-18T08:48:45.272Z,23.45
2022-12-18T08:53:47.565Z,25.70
2022-12-18T08:58:52.661Z,25.27
2022-12-18T09:03:54.470Z,25.27
2022-12-18T09:08:55.860Z,29.27
2022-12-18T09:13:58.361Z,25.52
2022-12-18T09:19:00.446Z,29.92
2022-12-18T09:24:01.890Z,30.98
2022-12-18T09:29:04.327Z,53.75
2022-12-18T09:34:07.228Z,31.15
2022-12-18T09:39:09.153Z,29.75
2022-12-18T09:44:44.967Z,33.25
2022-12-18T09:49:50.743Z,35.03
2022-12-18T09:55:04.355Z,33.38
2022-12-18T10:00:12.254Z,34.40
2022-12-18T10:05:21.586Z,33.03
2022-12-18T10:10:47.471Z,37.15
2022-12-18T10:16:01.212Z,35.88
2022-12-18T10:21:12.814Z,35.17
2022-12-18T10:26:14.227Z,39.45
2022-12-18T10:31:24.306Z,36.90
2022-12-18T10:36:26.473Z,37.35
2022-12-18T10:41:29.530Z,36.72
2022-12-18T10:46:31.352Z,36.83
2022-12-18T10:51:36.376Z,34.47
2022-12-18T10:56:39.071Z,34.25
2022-12-18T11:01:49.497Z,34.83
2022-12-18T11:07:02.140Z,36.17
2022-12-18T11:12:15.952Z,39.83
2022-12-18T11:17:25.876Z,33.40
2022-12-18T11:22:37.101Z,35.38
2022-12-18T11:27:40.953Z,33.75
2022-12-18T11:32:46.522Z,34.25
2022-12-18T11:37:58.483Z,31.40
2022-12-18T11:43:27.225Z,34.92
2022-12-18T11:48:39.096Z,34.65
2022-12-18T11:53:41.011Z,32.22
2022-12-18T11:58:56.028Z,33.70
2022-12-18T12:04:15.619Z,37.22
2022-12-18T12:09:36.857Z,36.75
2022-12-18T12:15:05.821Z,35.53
2022-12-18T12:20:43.132Z,35.92
2022-12-18T12:25:53.880Z,37.50
2022-12-18T12:31:07.357Z,35.45
2022-12-18T12:36:11.993Z,33.80
2022-12-18T12:41:38.576Z,28.38
2022-12-18T12:46:44.132Z,35.92
2022-12-18T12:51:57.939Z,36.28
2022-12-18T12:57:21.385Z,35.33
2022-12-18T13:02:38.810Z,33.15
2022-12-18T13:07:49.084Z,36.35
2022-12-18T13:13:09.000Z,37.00
2022-12-18T13:18:10.583Z,35.35
2022-12-18T13:23:24.429Z,39.38
2022-12-18T13:28:49.176Z,36.72
2022-12-18T13:34:24.572Z,35.85
2022-12-18T13:39:18.448Z,36.00
2022-12-18T13:44:40.273Z,34.63
2022-12-18T13:49:45.519Z,34.30
2022-12-18T13:54:52.259Z,37.70
2022-12-18T13:59:54.009Z,35.78
2022-12-18T14:04:56.454Z,32.33
2022-12-18T14:10:12.631Z,35.08
2022-12-18T14:15:30.045Z,36.58
2022-12-18T14:20:36.855Z,33.30
2022-12-18T14:25:38.352Z,39.10
2022-12-18T14:30:42.699Z,33.13
2022-12-18T14:36:02.237Z,33.03
2022-12-18T14:41:11.734Z,36.95
2022-12-18T14:46:46.796Z,34.95
2022-12-18T14:51:51.721Z,30.53
2022-12-18T14:57:06.940Z,36.92
2022-12-18T15:02:23.523Z,35.03
2022-12-18T15:07:25.315Z,37.65
2022-12-18T15:12:34.617Z,37.38
2022-12-18T15:17:36.055Z,34.08
2022-12-18T15:22:37.904Z,33.58
2022-12-18T15:27:39.691Z,34.85
2022-12-18T15:32:44.748Z,36.10
2022-12-18T15:37:46.702Z,40.63
2022-12-18T15:43:08.529Z,39.50
2022-12-18T15:48:22.934Z,37.65
2022-12-18T15:53:26.476Z,40.15
2022-12-18T15:58:28.221Z,34.80
2022-12-18T16:03:29.953Z,37.83
2022-12-18T16:08:31.758Z,36.95
2022-12-18T16:13:33.185Z,38.78
2022-12-18T16:18:34.750Z,38.83
2022-12-18T16:23:36.116Z,36.20
2022-12-18T16:28:37.496Z,37.53
2022-12-18T16:33:39.666Z,36.90
2022-12-18T16:38:41.333Z,36.30
2022-12-18T16:43:44.270Z,37.38
2022-12-18T16:48:46.377Z,33.20
2022-12-18T16:53:47.749Z,32.20
2022-12-18T16:58:59.718Z,35.63
2022-12-18T17:04:05.730Z,35.75
2022-12-18T17:09:10.936Z,36.15
2022-12-18T17:14:18.943Z,37.58
2022-12-18T17:19:21.838Z,37.25
2022-12-18T17:24:23.508Z,44.78
2022-12-18T17:29:25.012Z,45.38
2022-12-18T17:34:27.851Z,52.00
2022-12-18T17:39:30.790Z,61.40
2022-12-18T17:44:34.714Z,43.40
2022-12-18T17:49:36.164Z,36.70
2022-12-18T17:54:40.182Z,37.88
2022-12-18T17:59:41.615Z,37.45
2022-12-18T18:04:43.160Z,36.30
2022-12-18T18:09:44.606Z,37.60
2022-12-18T18:14:46.176Z,36.88
2022-12-18T18:19:48.633Z,41.30
2022-12-18T18:24:51.602Z,36.65
2022-12-18T18:29:53.051Z,37.03
2022-12-18T18:34:55.638Z,32.15
2022-12-18T18:39:58.066Z,31.38
2022-12-18T18:44:59.579Z,34.65
2022-12-18T18:50:01.019Z,32.90
2022-12-18T18:55:13.285Z,36.35
2022-12-18T19:00:16.364Z,38.47
2022-12-18T19:05:18.035Z,33.47
2022-12-18T19:10:19.588Z,32.17
2022-12-18T19:15:21.799Z,33.42
2022-12-18T19:20:23.857Z,34.38
2022-12-18T19:25:38.587Z,30.65
2022-12-18T19:30:42.903Z,31.38
2022-12-18T19:35:44.676Z,35.40
2022-12-18T19:40:46.628Z,32.72
2022-12-18T19:45:55.005Z,35.28
2022-12-18T19:50:56.566Z,33.13
2022-12-18T19:55:59.816Z,31.67
2022-12-18T20:01:02.286Z,33.78
2022-12-18T20:06:29.709Z,34.95
2022-12-18T20:16:34.391Z,34.15
2022-12-18T20:21:36.883Z,34.05
2022-12-18T20:26:38.357Z,33.83
2022-12-18T20:31:40.853Z,31.67
2022-12-18T20:36:42.274Z,30.98
2022-12-18T20:41:45.474Z,33.58
2022-12-18T20:46:46.879Z,32.15
2022-12-18T20:51:56.280Z,31.38
2022-12-18T20:56:57.872Z,31.77
2022-12-18T21:01:59.487Z,32.42
2022-12-18T21:07:03.074Z,32.72
2022-12-18T21:12:24.529Z,31.02
2022-12-18T21:17:28.341Z,33.38
2022-12-18T21:22:30.259Z,23.52
2022-12-18T21:27:31.789Z,31.48
2022-12-18T21:32:33.648Z,32.72
2022-12-18T21:37:35.358Z,32.75
2022-12-18T21:42:55.571Z,30.65
2022-12-18T21:47:57.290Z,31.73
2022-12-18T21:52:58.693Z,33.72
2022-12-18T21:57:59.991Z,31.80
2022-12-18T22:03:18.429Z,34.63
2022-12-18T22:08:20.662Z,32.33
2022-12-18T22:13:23.353Z,34.00
2022-12-18T22:18:24.799Z,31.15
2022-12-18T22:23:26.559Z,33.88
2022-12-18T22:28:49.594Z,35.35
2022-12-18T22:33:51.192Z,32.42
2022-12-18T22:38:52.764Z,34.25
2022-12-18T22:43:55.038Z,31.15
2022-12-18T22:48:56.435Z,33.15
2022-12-18T22:53:58.185Z,32.83
2022-12-18T22:59:00.151Z,35.65
2022-12-18T23:04:01.666Z,37.97
2022-12-18T23:09:03.742Z,34.17
2022-12-18T23:14:05.181Z,33.17
2022-12-18T23:19:07.161Z,37.00
2022-12-18T23:24:08.798Z,34.40
2022-12-18T23:29:10.359Z,31.77
2022-12-18T23:34:13.425Z,32.10
2022-12-18T23:39:17.959Z,34.47
2022-12-18T23:44:30.628Z,30.33
2022-12-18T23:49:32.132Z,33.45
2022-12-18T23:54:34.041Z,32.95
2022-12-18T23:59:35.701Z,33.40
